Time;durP1;ratioP1;P1;durP2;ratioP2;P2;SDS_P1;SDS_P2;PMS_P1;PMS_P2;Temp;Humidity;BMP_temperature;BMP_pressure;BME280_temperature;BME280_humidity;BME280_pressure;Samples;Min_cycle;Max_cycle;Signal;HPM_P1;HPM_P2
2022/11/20 00:01:24;;;;;;;19.23;4.57;;;;;;;17.43;100.00;100051.13;5090990;28;20523;-73
2022/11/20 00:03:51;;;;;;;10.07;3.63;;;;;;;17.48;100.00;100062.44;5090482;28;20028;-73
2022/11/20 00:06:18;;;;;;;16.48;4.47;;;;;;;17.45;100.00;100070.28;5090683;28;20024;-73
2022/11/20 00:08:45;;;;;;;11.80;4.30;;;;;;;17.25;100.00;100038.94;5090914;28;20036;-74
2022/11/20 00:11:16;;;;;;;12.32;4.38;;;;;;;17.35;100.00;100084.19;5088141;28;20051;-74
2022/11/20 00:13:45;;;;;;;15.82;4.20;;;;;;;17.43;100.00;100093.78;5090038;28;20031;-73
2022/11/20 00:16:13;;;;;;;15.68;4.25;;;;;;;17.37;100.00;100083.31;5078542;28;20036;-73
2022/11/20 00:18:39;;;;;;;11.60;4.05;;;;;;;17.39;100.00;100084.16;5070854;28;20021;-73
2022/11/20 00:21:11;;;;;;;12.68;3.67;;;;;;;17.42;100.00;100085.91;5070643;28;20053;-73
2022/11/20 00:23:37;;;;;;;11.05;3.85;;;;;;;17.28;100.00;100089.38;5070334;28;20052;-73
2022/11/20 00:26:04;;;;;;;21.02;4.82;;;;;;;17.32;100.00;100098.09;5070554;28;20048;-72
2022/11/20 00:28:30;;;;;;;11.85;4.28;;;;;;;17.24;100.00;100082.38;5070265;28;20568;-73
2022/11/20 00:31:06;;;;;;;13.15;4.28;;;;;;;17.34;100.00;100085.03;5074432;28;20044;-73
2022/11/20 00:33:32;;;;;;;11.32;3.50;;;;;;;17.26;100.00;100054.56;5089238;28;20062;-73
2022/11/20 00:36:05;;;;;;;12.27;3.65;;;;;;;17.28;100.00;100039.81;5070127;28;20053;-72
2022/11/20 00:38:32;;;;;;;14.02;4.38;;;;;;;17.42;100.00;100070.25;5031159;28;1146512;-72
2022/11/20 00:40:59;;;;;;;12.30;3.72;;;;;;;17.48;100.00;100070.28;5071579;28;20029;-73
2022/11/20 00:43:25;;;;;;;16.20;4.05;;;;;;;17.31;100.00;100033.72;5071485;28;20025;-73
2022/11/20 00:45:55;;;;;;;10.65;4.05;;;;;;;17.49;100.00;100063.34;5083125;28;20040;-73
2022/11/20 00:48:21;;;;;;;16.40;4.45;;;;;;;17.48;100.00;100069.41;5073069;28;20037;-73
2022/11/20 00:50:46;;;;;;;10.85;3.65;;;;;;;17.46;100.00;100066.81;5071739;28;20032;-73
2022/11/20 00:53:12;;;;;;;14.43;4.75;;;;;;;17.46;100.00;100098.13;5071542;28;20032;-72
2022/11/20 00:55:37;;;;;;;10.55;3.75;;;;;;;17.43;100.00;100098.09;5071547;28;20020;-72
2022/11/20 00:58:02;;;;;;;14.70;4.50;;;;;;;17.38;100.00;100089.41;5084454;28;20105;-72
2022/11/20 01:00:28;;;;;;;14.00;4.80;;;;;;;17.40;100.00;100098.97;5087346;28;20024;-72
2022/11/20 01:02:55;;;;;;;12.63;3.72;;;;;;;17.28;100.00;100078.06;5072029;28;20024;-72
2022/11/20 01:05:21;;;;;;;10.85;4.10;;;;;;;17.37;100.00;100098.97;5071003;28;20483;-72
2022/11/20 01:07:46;;;;;;;10.00;3.95;;;;;;;17.10;100.00;100071.91;5066173;28;20027;-72
2022/11/20 01:10:12;;;;;;;13.38;3.85;;;;;;;17.33;100.00;100109.38;5070652;28;20036;-74
2022/11/20 01:12:37;;;;;;;16.27;4.47;;;;;;;17.28;100.00;100105.03;5067949;28;20028;-73
2022/11/20 01:15:03;;;;;;;13.82;4.88;;;;;;;17.24;100.00;100102.41;5081990;28;20036;-74
2022/11/20 01:17:28;;;;;;;15.18;3.92;;;;;;;17.25;100.00;100105.00;5072452;28;20015;-73
2022/11/20 01:20:05;;;;;;;17.40;4.90;;;;;;;17.13;100.00;100095.41;5082088;28;20031;-72
2022/11/20 01:22:31;;;;;;;15.20;4.78;;;;;;;17.13;100.00;100102.34;5081128;28;20033;-73
2022/11/20 01:24:56;;;;;;;10.75;4.07;;;;;;;17.06;100.00;100091.03;5070803;28;20023;-73
2022/11/20 01:27:22;;;;;;;12.60;4.95;;;;;;;17.07;100.00;100089.28;5071049;28;20072;-73
2022/11/20 01:29:47;;;;;;;18.13;4.40;;;;;;;16.85;100.00;100063.09;5070145;28;20028;-73
2022/11/20 01:32:13;;;;;;;17.05;4.25;;;;;;;16.99;100.00;100089.25;5070758;28;20040;-74
2022/11/20 01:34:38;;;;;;;14.18;4.45;;;;;;;16.95;100.00;100079.69;5069532;28;20032;-73
2022/11/20 01:37:04;;;;;;;16.08;4.13;;;;;;;16.88;100.00;100075.25;5070602;28;20044;-73
2022/11/20 01:39:29;;;;;;;13.95;3.90;;;;;;;16.80;100.00;100076.09;5063131;28;20597;-73
2022/11/20 01:44:59;;;;;;;9.27;3.58;;;;;;;16.75;100.00;100082.16;5008128;28;20608;-73
2022/11/20 01:47:34;;;;;;;10.00;3.63;;;;;;;16.56;100.00;100052.50;5008399;28;20069;-73
2022/11/20 01:50:10;;;;;;;12.50;3.85;;;;;;;16.75;100.00;100083.03;5008169;28;20045;-73
2022/11/20 01:53:11;;;;;;;13.85;3.80;;;;;;;16.76;100.00;100079.56;5007705;28;20038;-73
2022/11/20 01:55:41;;;;;;;10.60;3.85;;;;;;;16.58;100.00;100056.84;4988580;28;20043;-72
2022/11/20 01:58:08;;;;;;;14.80;4.43;;;;;;;16.78;100.00;100085.63;4988289;28;20519;-72
2022/11/20 02:00:33;;;;;;;13.00;3.90;;;;;;;16.59;100.00;100045.56;4988462;28;20037;-72
2022/11/20 02:03:05;;;;;;;13.20;3.92;;;;;;;16.78;100.00;100071.75;4988136;28;20101;-72
2022/11/20 02:06:07;;;;;;;13.30;4.55;;;;;;;16.86;100.00;100077.88;4988348;28;20053;-71
2022/11/20 02:08:34;;;;;;;10.88;3.33;;;;;;;16.86;100.00;100069.16;4988368;28;20576;-72
2022/11/20 02:11:00;;;;;;;10.80;3.78;;;;;;;16.77;100.00;100049.13;4988021;28;20034;-71
2022/11/20 02:13:43;;;;;;;14.25;3.92;;;;;;;16.82;100.00;100061.34;4988044;28;20022;-73
2022/11/20 02:16:18;;;;;;;10.05;3.53;;;;;;;16.83;100.00;100062.19;4988444;28;20056;-72
2022/11/20 02:18:45;;;;;;;11.63;3.55;;;;;;;16.86;100.00;100067.44;4988161;28;20042;-72
2022/11/20 02:21:32;;;;;;;10.18;3.33;;;;;;;16.88;100.00;100076.13;4997859;28;20104;-73
2022/11/20 02:24:14;;;;;;;8.68;2.95;;;;;;;16.88;100.00;100067.44;5007382;28;20145;-72
2022/11/20 02:26:50;;;;;;;10.63;3.38;;;;;;;16.88;100.00;100050.06;5007827;28;20108;-72
2022/11/20 02:29:19;;;;;;;12.25;3.72;;;;;;;16.97;100.00;100051.84;5007631;28;20041;-72
2022/11/20 02:31:45;;;;;;;10.07;3.45;;;;;;;17.00;100.00;100040.56;5053747;28;20044;-72
2022/11/20 02:34:11;;;;;;;12.25;3.92;;;;;;;17.07;100.00;100053.66;5069697;28;20036;-71
2022/11/20 02:36:39;;;;;;;10.55;3.22;;;;;;;17.08;100.00;100018.84;5071291;28;20037;-71
2022/11/20 02:39:06;;;;;;;8.00;3.00;;;;;;;17.22;100.00;100020.63;5070020;28;20024;-71
2022/11/20 02:41:36;;;;;;;10.43;3.13;;;;;;;17.34;100.00;100030.25;5069816;28;20025;-71
2022/11/20 02:44:03;;;;;;;8.95;2.95;;;;;;;17.36;100.00;100036.31;5069603;28;20028;-71
2022/11/20 02:46:29;;;;;;;10.43;3.13;;;;;;;17.39;100.00;100036.34;5083870;28;20055;-72
2022/11/20 02:48:55;;;;;;;10.90;2.85;;;;;;;17.48;100.00;100041.56;5068171;28;20032;-73
2022/11/20 02:51:20;;;;;;;13.27;3.10;;;;;;;17.45;100.00;100032.00;5069725;28;20402;-72
2022/11/20 02:53:46;;;;;;;9.10;2.85;;;;;;;17.42;100.00;100039.84;5069865;28;20501;-72
2022/11/20 02:56:11;;;;;;;12.13;3.10;;;;;;;17.40;100.00;100046.78;5069818;28;20489;-72
2022/11/20 02:58:36;;;;;;;10.27;3.50;;;;;;;17.13;100.00;100017.16;5069326;28;20090;-72
2022/11/20 03:01:02;;;;;;;9.02;3.15;;;;;;;17.29;100.00;100051.97;5069716;28;20024;-72
2022/11/20 03:03:27;;;;;;;8.00;2.55;;;;;;;17.30;100.00;100055.47;5069343;28;20025;-71
2022/11/20 03:05:53;;;;;;;9.07;2.78;;;;;;;17.32;100.00;100052.84;5069440;28;20024;-71
2022/11/20 03:08:18;;;;;;;5.55;2.10;;;;;;;17.36;100.00;100059.81;5069559;28;20020;-72
2022/11/20 03:10:43;;;;;;;6.90;2.58;;;;;;;17.39;100.00;100062.44;5068448;28;20031;-72
2022/11/20 03:13:09;;;;;;;10.05;3.10;;;;;;;17.39;100.00;100055.47;5069309;28;20026;-72
2022/11/20 03:15:36;;;;;;;9.02;2.67;;;;;;;17.41;100.00;100061.56;5069607;28;20039;-72
2022/11/20 03:18:02;;;;;;;9.32;2.72;;;;;;;17.37;100.00;100070.28;5069156;28;20021;-72
2022/11/20 03:20:28;;;;;;;9.45;2.92;;;;;;;17.36;100.00;100070.25;5069481;28;20036;-72
2022/11/20 03:22:54;;;;;;;13.00;3.20;;;;;;;17.39;100.00;100067.66;5076863;28;20028;-72
2022/11/20 03:25:20;;;;;;;9.35;3.20;;;;;;;17.41;100.00;100065.94;5086789;28;20039;-71
2022/11/20 03:27:45;;;;;;;8.05;2.63;;;;;;;17.34;100.00;100057.19;5089255;28;20040;-69
2022/11/20 03:30:11;;;;;;;9.55;2.90;;;;;;;17.40;100.00;100072.00;5089834;28;20040;-69
2022/11/20 03:32:36;;;;;;;13.52;3.67;;;;;;;17.34;100.00;100061.56;5091009;28;20101;-69
2022/11/20 03:35:02;;;;;;;8.63;2.75;;;;;;;17.35;100.00;100056.34;5093455;28;20034;-69
2022/11/20 03:37:27;;;;;;;8.02;2.90;;;;;;;17.30;100.00;100071.13;5076407;28;20044;-69
2022/11/20 03:39:53;;;;;;;10.68;2.80;;;;;;;17.32;100.00;100068.50;5073304;28;20029;-68
2022/11/20 03:45:02;;;;;;;11.30;3.05;;;;;;;17.26;100.00;100080.66;5073518;28;20078;-71
2022/11/20 03:47:28;;;;;;;11.20;3.00;;;;;;;17.24;100.00;100061.50;5073199;28;20020;-71
2022/11/20 03:49:53;;;;;;;9.82;2.63;;;;;;;17.23;100.00;100070.19;5073038;28;20383;-71
2022/11/20 03:52:19;;;;;;;11.27;3.05;;;;;;;17.24;100.00;100076.31;5053795;28;20098;-71
2022/11/20 03:54:44;;;;;;;10.10;2.72;;;;;;;17.22;100.00;100076.31;5073094;28;20020;-69
2022/11/20 03:57:09;;;;;;;13.82;2.85;;;;;;;17.22;100.00;100076.31;5073064;28;20079;-71
2022/11/20 03:59:35;;;;;;;12.55;3.30;;;;;;;17.26;100.00;100064.16;5072791;28;20021;-72
2022/11/20 04:02:00;;;;;;;11.00;2.70;;;;;;;17.22;100.00;100058.06;5072822;28;20455;-72
2022/11/20 04:04:26;;;;;;;9.70;2.72;;;;;;;17.23;100.00;100064.13;5072635;28;20028;-71
2022/11/20 04:06:51;;;;;;;7.85;2.72;;;;;;;17.26;100.00;100057.19;5072815;28;20027;-71
2022/11/20 04:09:16;;;;;;;8.20;2.47;;;;;;;17.27;100.00;100051.09;5072963;28;20070;-71
2022/11/20 04:11:42;;;;;;;9.15;2.75;;;;;;;17.24;100.00;100052.84;5072647;28;20572;-70
2022/11/20 04:14:14;;;;;;;13.27;3.03;;;;;;;17.04;100.00;100000.63;5072270;28;20463;-72
2022/11/20 04:16:40;;;;;;;11.13;2.97;;;;;;;17.22;100.00;100023.25;5072670;28;20115;-70
2022/11/20 04:19:11;;;;;;;10.52;3.03;;;;;;;17.21;100.00;100025.00;5072861;28;20108;-70
2022/11/20 04:21:36;;;;;;;7.60;3.03;;;;;;;17.18;100.00;100017.16;5053748;28;20098;-71
2022/11/20 04:24:02;;;;;;;9.25;2.60;;;;;;;17.21;100.00;100024.13;5072706;28;20033;-71
2022/11/20 04:26:29;;;;;;;11.52;3.28;;;;;;;17.27;100.00;100027.63;5071333;28;20032;-71
2022/11/20 04:28:56;;;;;;;13.43;3.30;;;;;;;17.27;100.00;100040.66;5071952;28;20035;-71
2022/11/20 04:31:24;;;;;;;12.45;3.10;;;;;;;17.23;100.00;100023.25;5072275;28;20446;-72
2022/11/20 04:33:50;;;;;;;8.18;3.03;;;;;;;17.20;100.00;100023.25;5072453;28;20036;-71
2022/11/20 04:36:18;;;;;;;12.95;3.20;;;;;;;17.28;100.00;100031.09;5072462;28;20021;-71
2022/11/20 04:38:44;;;;;;;13.55;3.28;;;;;;;17.27;100.00;100025.03;5072159;28;20136;-70
2022/11/20 04:41:16;;;;;;;13.30;3.28;;;;;;;17.22;100.00;100021.53;5072613;28;20029;-70
2022/11/20 04:43:45;;;;;;;8.75;3.00;;;;;;;17.21;100.00;100014.56;5070933;28;20032;-70
2022/11/20 04:46:10;;;;;;;14.45;3.47;;;;;;;17.23;100.00;100018.03;5071664;28;20035;-71
2022/11/20 04:48:36;;;;;;;10.73;2.95;;;;;;;17.19;100.00;100018.91;5053994;28;20028;-70
2022/11/20 04:51:05;;;;;;;13.20;2.85;;;;;;;17.12;100.00;100020.63;5072189;28;20520;-70
2022/11/20 04:53:31;;;;;;;12.68;3.15;;;;;;;16.84;100.00;99980.53;5072080;28;20104;-70
2022/11/20 04:56:05;;;;;;;9.95;3.35;;;;;;;17.06;100.00;100015.41;5072248;28;20032;-70
2022/11/20 04:58:31;;;;;;;8.68;3.25;;;;;;;16.94;100.00;100000.56;5071588;28;20467;-70
2022/11/20 05:01:04;;;;;;;12.68;3.35;;;;;;;17.15;100.00;100043.25;5071711;28;20028;-70
2022/11/20 05:03:30;;;;;;;10.05;3.10;;;;;;;17.14;100.00;100038.88;5071753;28;20398;-70
2022/11/20 05:05:59;;;;;;;9.15;3.30;;;;;;;17.14;100.00;100039.75;5071839;28;20028;-70
2022/11/20 05:08:24;;;;;;;11.23;3.05;;;;;;;17.16;100.00;100031.94;5071616;28;20060;-70
2022/11/20 05:10:50;;;;;;;11.98;3.70;;;;;;;17.11;100.00;100025.84;5071447;28;20025;-70
2022/11/20 05:13:15;;;;;;;10.60;3.15;;;;;;;16.95;100.00;100007.53;5071598;28;20442;-70
2022/11/20 05:15:40;;;;;;;11.23;3.40;;;;;;;16.98;100.00;100018.00;5071303;28;20021;-70
2022/11/20 05:18:07;;;;;;;13.90;3.70;;;;;;;17.03;100.00;100025.81;5071140;28;20174;-71
2022/11/20 05:20:32;;;;;;;10.20;3.45;;;;;;;16.97;100.00;100018.84;5071511;28;20036;-70
2022/11/20 05:22:58;;;;;;;13.05;3.10;;;;;;;16.97;100.00;100026.66;5071440;28;20040;-71
2022/11/20 05:25:24;;;;;;;8.32;3.50;;;;;;;16.81;100.00;100002.25;5071525;28;20032;-71
2022/11/20 05:27:49;;;;;;;15.13;3.25;;;;;;;17.01;100.00;100031.88;5053303;28;20037;-71
2022/11/20 05:30:15;;;;;;;10.50;3.28;;;;;;;17.03;100.00;100031.03;5071255;28;20016;-71
2022/11/20 05:32:40;;;;;;;14.70;3.65;;;;;;;17.02;100.00;100024.06;5071014;28;20194;-70
2022/11/20 05:35:06;;;;;;;13.75;3.72;;;;;;;16.96;100.00;100008.41;5071362;28;20024;-71
2022/11/20 05:37:31;;;;;;;10.73;3.30;;;;;;;16.94;100.00;100005.78;5069460;28;20055;-71
2022/11/20 05:39:57;;;;;;;12.75;3.60;;;;;;;16.93;100.00;99995.34;5070759;28;20059;-71
2022/11/20 05:42:32;;;;;;;10.65;3.58;;;;;;;16.76;100.00;99964.84;5071115;28;20495;-71
2022/11/20 05:45:02;;;;;;;11.30;3.13;;;;;;;16.92;100.00;99986.69;5022845;28;20040;-71
2022/11/20 05:47:31;;;;;;;10.25;3.35;;;;;;;16.90;100.00;99983.16;5071204;28;20082;-71
2022/11/20 05:49:56;;;;;;;9.27;3.13;;;;;;;16.92;100.00;99973.63;5070608;28;20028;-71
2022/11/20 05:52:22;;;;;;;12.52;3.22;;;;;;;16.99;100.00;99982.34;5070830;28;20258;-71
2022/11/20 05:54:47;;;;;;;13.95;3.65;;;;;;;17.02;100.00;99977.13;5070651;28;20021;-71
2022/11/20 05:57:12;;;;;;;8.02;2.63;;;;;;;17.05;100.00;99992.78;5071015;28;20042;-71
2022/11/20 05:59:38;;;;;;;13.00;3.78;;;;;;;17.08;100.00;99999.75;5070836;28;20017;-71
2022/11/20 06:02:03;;;;;;;12.93;3.45;;;;;;;17.11;100.00;100007.59;5070945;28;20074;-70
2022/11/20 06:04:29;;;;;;;14.18;3.78;;;;;;;17.20;100.00;100010.22;5070649;28;20104;-71
2022/11/20 06:06:54;;;;;;;9.63;3.28;;;;;;;17.20;100.00;100004.13;5070665;28;20093;-71
2022/11/20 06:09:20;;;;;;;13.60;3.22;;;;;;;17.22;100.00;100011.09;5070597;28;20033;-71
2022/11/20 06:11:45;;;;;;;12.30;3.20;;;;;;;17.32;100.00;100018.94;5070299;28;20115;-71
2022/11/20 06:14:10;;;;;;;12.80;3.65;;;;;;;17.16;100.00;99984.09;5070706;28;20031;-71
2022/11/20 06:16:36;;;;;;;8.40;2.90;;;;;;;17.38;100.00;100030.22;5070872;28;20017;-70
2022/11/20 06:19:01;;;;;;;7.97;2.92;;;;;;;17.37;100.00;100035.47;5088939;28;20028;-73
2022/11/20 06:21:27;;;;;;;10.85;3.10;;;;;;;17.45;100.00;100049.41;5090781;28;20386;-72
2022/11/20 06:23:53;;;;;;;7.75;3.15;;;;;;;17.49;100.00;100045.06;5090680;28;20042;-70
2022/11/20 06:26:27;;;;;;;12.73;2.97;;;;;;;17.50;100.00;100042.44;5090244;28;20474;-71
2022/11/20 06:28:54;;;;;;;12.07;2.90;;;;;;;17.52;100.00;100043.34;5090666;28;20103;-71
2022/11/20 06:31:21;;;;;;;10.80;3.00;;;;;;;17.33;100.00;100011.09;5090041;28;20489;-71
2022/11/20 06:33:48;;;;;;;11.07;3.15;;;;;;;17.54;100.00;100054.63;5090751;28;20077;-71
2022/11/20 06:36:15;;;;;;;10.93;3.67;;;;;;;17.59;100.00;100060.72;5090435;28;20512;-71
2022/11/20 06:38:41;;;;;;;15.50;4.13;;;;;;;17.59;100.00;100060.72;5090513;28;20044;-71
2022/11/20 06:41:12;;;;;;;10.75;2.83;;;;;;;17.61;100.00;100052.91;5090251;28;20097;-71
2022/11/20 06:43:37;;;;;;;8.73;2.80;;;;;;;17.67;100.00;100059.88;5090630;28;20118;-71
2022/11/20 06:46:03;;;;;;;10.23;3.38;;;;;;;17.71;100.00;100064.25;5090278;28;20104;-73
2022/11/20 06:48:28;;;;;;;10.43;3.72;;;;;;;17.73;100.00;100067.72;5090180;28;20028;-72
2022/11/20 06:50:54;;;;;;;12.23;2.90;;;;;;;17.80;100.00;100077.28;5090258;28;20486;-72
2022/11/20 06:53:20;;;;;;;12.48;3.25;;;;;;;17.83;100.00;100066.88;5090526;28;20036;-73
2022/11/20 06:55:47;;;;;;;10.70;2.90;;;;;;;17.84;100.00;100063.38;5090508;28;20031;-72
2022/11/20 06:58:13;;;;;;;12.85;3.10;;;;;;;17.79;100.00;100054.66;5090013;28;20490;-72
2022/11/20 07:00:39;;;;;;;9.52;2.78;;;;;;;17.84;100.00;100073.81;5089829;28;20036;-71
2022/11/20 07:03:06;;;;;;;11.70;2.90;;;;;;;17.90;100.00;100063.38;5090502;28;20034;-70
2022/11/20 07:05:32;;;;;;;9.52;2.78;;;;;;;17.88;100.00;100065.13;5090340;28;20389;-71
2022/11/20 07:07:58;;;;;;;12.35;2.65;;;;;;;17.89;100.00;100059.00;5092169;28;20036;-71
2022/11/20 07:10:24;;;;;;;8.50;2.65;;;;;;;17.93;100.00;100068.59;5094096;28;20493;-70
2022/11/20 07:12:51;;;;;;;9.10;2.83;;;;;;;17.66;100.00;100032.91;5093880;28;20494;-71
2022/11/20 07:15:19;;;;;;;8.48;2.95;;;;;;;17.75;100.00;100058.16;5093930;28;20097;-71
2022/11/20 07:17:45;;;;;;;7.25;2.67;;;;;;;17.94;100.00;100069.50;5093794;28;20498;-71
2022/11/20 07:20:11;;;;;;;10.98;3.58;;;;;;;17.98;100.00;100091.25;5093961;28;20046;-72
2022/11/20 07:22:36;;;;;;;9.95;2.97;;;;;;;18.02;100.00;100093.00;5093812;28;20042;-71
2022/11/20 07:25:02;;;;;;;11.25;3.90;;;;;;;18.02;100.00;100085.16;5094021;28;20020;-72
2022/11/20 07:27:28;;;;;;;12.20;3.70;;;;;;;18.06;100.00;100084.31;5094019;28;20032;-71
2022/11/20 07:29:55;;;;;;;12.65;3.42;;;;;;;18.07;100.00;100091.28;5093942;28;20107;-71
2022/11/20 07:32:21;;;;;;;16.48;3.58;;;;;;;18.04;100.00;100088.66;5093780;28;20039;-71
2022/11/20 07:34:46;;;;;;;12.00;3.97;;;;;;;18.07;100.00;100083.44;5094046;28;20024;-71
2022/11/20 07:37:12;;;;;;;11.77;2.67;;;;;;;18.07;100.00;100070.38;5086722;28;20052;-71
2022/11/20 07:39:38;;;;;;;12.20;3.20;;;;;;;18.06;100.00;100079.09;5073075;28;20056;-71
2022/11/20 07:42:03;;;;;;;7.93;2.70;;;;;;;18.04;100.00;100076.44;5073509;28;20135;-71
2022/11/20 07:44:29;;;;;;;14.30;3.58;;;;;;;18.09;100.00;100076.47;5073510;28;20028;-71
2022/11/20 07:46:54;;;;;;;10.65;4.13;;;;;;;18.06;100.00;100068.66;5073283;28;20020;-71
2022/11/20 07:49:19;;;;;;;13.27;3.38;;;;;;;18.06;100.00;100068.66;5073241;28;20802;-71
2022/11/20 07:51:45;;;;;;;10.80;3.20;;;;;;;18.08;100.00;100061.66;5073215;28;20024;-71
2022/11/20 07:54:10;;;;;;;8.65;2.78;;;;;;;18.06;100.00;100064.28;5073114;28;20079;-71
2022/11/20 07:56:36;;;;;;;15.98;3.70;;;;;;;18.07;100.00;100075.63;5072943;28;20078;-72
2022/11/20 07:59:01;;;;;;;12.23;3.42;;;;;;;18.08;100.00;100065.16;5073071;28;20032;-72
2022/11/20 08:01:26;;;;;;;18.02;3.47;;;;;;;17.89;100.00;100027.66;5071642;28;20126;-72
2022/11/20 08:03:52;;;;;;;12.43;2.65;;;;;;;18.11;100.00;100056.44;5073092;28;20056;-72
2022/11/20 08:06:19;;;;;;;14.45;3.22;;;;;;;18.18;100.00;100049.47;5071511;28;20028;-72
2022/11/20 08:08:44;;;;;;;13.32;3.65;;;;;;;18.16;100.00;100051.22;5072598;28;20547;-72
2022/11/20 08:14:12;;;;;;;13.68;3.25;;;;;;;18.14;100.00;100052.97;5072454;28;20082;-72
2022/11/20 08:16:48;;;;;;;8.38;2.95;;;;;;;18.16;100.00;100059.06;5072801;28;20101;-72
2022/11/20 08:19:15;;;;;;;16.20;3.67;;;;;;;18.19;100.00;100057.28;5072444;28;20029;-71
2022/11/20 08:21:41;;;;;;;14.25;4.07;;;;;;;18.25;100.00;100064.25;5072857;28;20029;-72
2022/11/20 08:24:07;;;;;;;13.13;3.67;;;;;;;18.30;100.00;100061.66;5054624;28;20029;-71
2022/11/20 08:26:34;;;;;;;12.93;3.60;;;;;;;18.33;100.00;100061.63;5072564;28;20032;-72
2022/11/20 08:28:59;;;;;;;13.80;4.68;;;;;;;18.31;100.00;100058.19;5072506;28;20024;-71
2022/11/20 08:31:26;;;;;;;12.88;3.15;;;;;;;18.38;100.00;100052.03;5072203;28;20028;-71
2022/11/20 08:33:52;;;;;;;13.77;3.83;;;;;;;18.41;100.00;100057.28;5072352;28;20056;-71
2022/11/20 08:36:19;;;;;;;11.82;3.42;;;;;;;18.45;100.00;100055.53;5072620;28;20021;-70
2022/11/20 08:38:52;;;;;;;16.45;3.78;;;;;;;18.48;100.00;100068.59;5072315;28;20050;-71
2022/11/20 08:41:26;;;;;;;17.13;4.10;;;;;;;18.52;100.00;100071.19;5029546;28;20571;-71
2022/11/20 08:43:56;;;;;;;16.13;3.90;;;;;;;18.53;100.00;100066.81;5029570;28;20052;-71
2022/11/20 08:46:24;;;;;;;16.33;4.28;;;;;;;18.61;100.00;100070.31;5029588;28;20052;-71
2022/11/20 08:48:49;;;;;;;13.63;3.15;;;;;;;18.63;100.00;100075.53;5029883;28;20049;-71
2022/11/20 08:51:15;;;;;;;14.75;4.57;;;;;;;18.48;100.00;100045.06;5029641;28;20025;-71
2022/11/20 08:53:41;;;;;;;12.52;3.40;;;;;;;18.69;100.00;100058.09;5029552;28;20052;-71
2022/11/20 08:56:07;;;;;;;17.58;4.60;;;;;;;18.62;100.00;100034.56;5029514;28;20033;-71
2022/11/20 08:58:33;;;;;;;14.73;3.85;;;;;;;18.71;100.00;100056.31;5029480;28;20068;-71
2022/11/20 09:00:58;;;;;;;12.43;3.60;;;;;;;18.71;100.00;100048.47;5029342;28;20126;-71
2022/11/20 09:03:26;;;;;;;10.52;3.80;;;;;;;18.67;100.00;100043.28;5026703;28;20041;-71
2022/11/20 09:06:00;;;;;;;20.90;4.30;;;;;;;18.72;100.00;100052.84;5028725;28;20121;-72
2022/11/20 09:08:26;;;;;;;15.55;4.15;;;;;;;18.71;100.00;100052.84;5028762;28;20033;-71
2022/11/20 09:10:54;;;;;;;11.77;2.70;;;;;;;18.71;100.00;100039.78;5028677;28;20435;-72
2022/11/20 09:13:25;;;;;;;14.23;3.27;;;;;;;18.75;100.00;100050.22;4979409;28;20044;-70
2022/11/20 09:16:09;;;;;;;15.98;3.88;;;;;;;18.74;100.00;100045.88;5028536;28;20025;-70
2022/11/20 09:18:38;;;;;;;14.95;4.25;;;;;;;18.78;100.00;100053.69;5045690;28;20048;-72
2022/11/20 09:21:06;;;;;;;13.25;3.33;;;;;;;18.74;100.00;100042.34;5075754;28;20422;-70
2022/11/20 09:23:34;;;;;;;11.98;4.47;;;;;;;18.64;100.00;100004.06;5051150;28;20039;-72
2022/11/20 09:26:13;;;;;;;15.10;3.80;;;;;;;18.86;100.00;100041.47;5068767;28;20514;-70
2022/11/20 09:28:39;;;;;;;15.80;3.90;;;;;;;18.82;100.00;100032.75;5066537;28;20075;-68
2022/11/20 09:31:14;;;;;;;21.80;4.10;;;;;;;18.86;100.00;100029.25;5034357;28;20040;-68
2022/11/20 09:33:39;;;;;;;13.55;3.58;;;;;;;18.89;100.00;100036.19;5053041;28;20391;-68
2022/11/20 09:36:05;;;;;;;16.38;4.53;;;;;;;18.87;100.00;100024.91;5070788;28;20017;-71
2022/11/20 09:38:50;;;;;;;19.25;3.78;;;;;;;18.94;100.00;100031.88;5067967;28;20123;-69
2022/11/20 09:41:47;;;;;;;18.50;4.05;;;;;;;18.62;100.00;99958.75;5067760;28;20174;-70
2022/11/20 09:44:35;;;;;;;24.45;5.03;;;;;;;18.93;100.00;100017.06;5068304;28;20134;-69
2022/11/20 09:47:03;;;;;;;21.60;4.57;;;;;;;18.92;100.00;100007.47;5068234;28;20040;-72
2022/11/20 09:49:46;;;;;;;21.13;3.97;;;;;;;18.92;100.00;99995.25;5068000;28;20101;-70
2022/11/20 09:52:49;;;;;;;16.67;4.05;;;;;;;18.90;100.00;100002.25;5067973;28;20067;-72
2022/11/20 09:55:15;;;;;;;14.18;3.35;;;;;;;18.80;100.00;99989.19;5067840;28;20119;-69
2022/11/20 09:57:44;;;;;;;13.93;3.65;;;;;;;18.88;100.00;99988.25;5050804;28;20045;-74
2022/11/20 10:00:13;;;;;;;20.23;4.05;;;;;;;18.87;100.00;99996.13;5066725;28;20032;-70
2022/11/20 10:03:09;;;;;;;17.73;4.10;;;;;;;18.89;100.00;100010.94;5067521;28;20566;-68
2022/11/20 10:06:02;;;;;;;19.10;4.63;;;;;;;18.87;100.00;99980.44;5067616;28;20108;-68
2022/11/20 10:08:29;;;;;;;14.77;3.30;;;;;;;18.74;100.00;99971.75;5066892;28;20077;-72
2022/11/20 10:11:00;;;;;;;13.00;3.63;;;;;;;18.79;100.00;99982.19;5067320;28;20513;-73
2022/11/20 10:13:32;;;;;;;17.65;4.10;;;;;;;18.76;100.00;99985.72;5067498;28;20513;-73
2022/11/20 10:16:17;;;;;;;18.30;4.40;;;;;;;18.75;100.00;100002.25;5075537;28;20036;-72
2022/11/20 10:18:51;;;;;;;17.95;3.60;;;;;;;18.77;100.00;99995.28;5089250;28;20063;-72
2022/11/20 10:21:35;;;;;;;16.60;3.65;;;;;;;18.75;100.00;99991.81;5054097;28;20522;-72
2022/11/20 10:24:06;;;;;;;21.10;4.22;;;;;;;18.81;100.00;99993.53;5090584;28;20367;-71
2022/11/20 10:26:56;;;;;;;18.23;4.28;;;;;;;18.72;100.00;99981.38;5090554;28;20054;-73
2022/11/20 10:29:33;;;;;;;14.93;3.53;;;;;;;18.88;100.00;99985.66;5090125;28;20078;-71
2022/11/20 10:32:13;;;;;;;21.42;4.55;;;;;;;18.99;100.00;99974.28;5090436;28;20107;-70
2022/11/20 10:34:51;;;;;;;21.77;5.22;;;;;;;19.04;100.00;99969.88;5089890;28;20486;-72
2022/11/20 10:37:25;;;;;;;18.92;4.47;;;;;;;19.05;100.00;99966.41;5090415;28;20052;-72
2022/11/20 10:40:12;;;;;;;24.27;4.63;;;;;;;19.20;100.00;99966.31;5090171;28;20051;-71
2022/11/20 10:42:43;;;;;;;23.73;4.65;;;;;;;19.13;100.00;99925.38;5093450;28;20031;-71
2022/11/20 10:45:11;;;;;;;25.30;4.57;;;;;;;19.42;100.00;99981.88;5094046;28;20020;-73
2022/11/20 10:47:36;;;;;;;17.75;4.10;;;;;;;19.32;100.00;99947.03;5083155;28;20506;-72
2022/11/20 10:50:05;;;;;;;22.02;4.38;;;;;;;19.56;100.00;99981.75;5056848;28;20032;-70
2022/11/20 10:52:49;;;;;;;19.48;4.45;;;;;;;19.46;100.00;99938.22;5054190;28;20032;-70
2022/11/20 10:55:37;;;;;;;22.00;5.03;;;;;;;19.69;100.00;99961.59;5067586;28;20034;-70
2022/11/20 10:58:17;;;;;;;19.95;4.82;;;;;;;19.79;99.36;99973.72;5060566;28;20028;-71
2022/11/20 11:00:43;;;;;;;19.33;4.53;;;;;;;19.85;98.69;99972.81;5060783;28;20040;-70
2022/11/20 11:03:27;;;;;;;27.30;4.97;;;;;;;19.70;98.52;99937.13;5055771;28;20368;-70
2022/11/20 11:06:03;;;;;;;29.85;4.88;;;;;;;19.90;98.71;99965.81;5073110;28;20490;-72
2022/11/20 11:08:36;;;;;;;18.77;4.45;;;;;;;19.90;99.22;99970.16;5070600;28;20032;-73
2022/11/20 11:11:17;;;;;;;19.33;4.47;;;;;;;19.86;99.29;99949.25;5072908;28;20487;-69
2022/11/20 11:13:43;;;;;;;18.20;4.97;;;;;;;19.83;99.57;99943.16;5061256;28;20024;-69
2022/11/20 11:16:24;;;;;;;25.05;4.78;;;;;;;19.85;99.74;99947.50;5053338;28;20029;-71
2022/11/20 11:18:49;;;;;;;20.92;4.18;;;;;;;19.79;99.24;99942.28;5053199;28;20029;-69
2022/11/20 11:21:22;;;;;;;27.63;5.07;;;;;;;19.79;98.74;99933.53;5053335;28;20098;-71
2022/11/20 11:23:59;;;;;;;19.40;4.18;;;;;;;19.76;99.67;99929.19;5053595;28;20032;-69
2022/11/20 11:26:25;;;;;;;26.30;5.38;;;;;;;19.72;99.79;99941.47;5017998;28;20040;-72
2022/11/20 11:28:56;;;;;;;20.27;4.70;;;;;;;19.72;98.37;99945.84;5053396;28;20032;-69